Time;durP1;ratioP1;P1;durP2;ratioP2;P2;SDS_P1;SDS_P2;PMS_P1;PMS_P2;Temp;Humidity;BMP_temperature;BMP_pressure;BME280_temperature;BME280_humidity;BME280_pressure;Samples;Min_cycle;Max_cycle;Signal;HPM_P1;HPM_P2
2024/01/29 00:01:34;;;;;;;0.20;0.20;;;;;;;3.64;88.04;96193.66;5041410;28;20212;-74
2024/01/29 00:04:01;;;;;;;0.20;0.20;;;;;;;3.26;88.14;96192.53;5038991;28;20210;-74
2024/01/29 00:06:28;;;;;;;0.20;0.20;;;;;;;3.49;88.27;96197.72;5039734;28;20244;-74
2024/01/29 00:08:57;;;;;;;0.73;0.73;;;;;;;3.70;87.92;96201.50;5040826;28;20200;-74
2024/01/29 00:11:24;;;;;;;0.20;0.20;;;;;;;3.35;88.26;96198.28;5036406;28;20263;-74
2024/01/29 00:13:51;;;;;;;0.28;0.28;;;;;;;3.45;88.58;96193.91;5039873;28;20236;-74
2024/01/29 00:16:18;;;;;;;0.75;0.75;;;;;;;3.69;87.99;96193.75;5040692;28;20211;-73
2024/01/29 00:18:45;;;;;;;0.20;0.20;;;;;;;3.74;87.89;96201.84;5040287;28;20600;-75
2024/01/29 00:21:12;;;;;;;0.22;0.22;;;;;;;3.27;87.92;96207.53;5038757;28;20620;-73
2024/01/29 00:23:39;;;;;;;0.20;0.20;;;;;;;3.42;87.83;96199.72;5044903;28;20223;-74
2024/01/29 00:26:07;;;;;;;0.20;0.20;;;;;;;3.54;88.14;96203.16;5043610;28;20234;-74
2024/01/29 00:28:34;;;;;;;0.20;0.20;;;;;;;3.32;88.25;96198.75;5043110;28;20233;-73
2024/01/29 00:31:01;;;;;;;0.20;0.20;;;;;;;3.42;87.85;96205.09;5044822;28;20307;-73
2024/01/29 00:33:28;;;;;;;0.20;0.20;;;;;;;3.19;88.29;96205.25;5044457;28;20262;-73
2024/01/29 00:35:54;;;;;;;0.20;0.20;;;;;;;3.09;89.33;96194.38;5042368;28;20203;-73
2024/01/29 00:38:21;;;;;;;0.20;0.20;;;;;;;3.19;88.86;96207.94;5044053;28;20224;-72
2024/01/29 00:40:48;;;;;;;0.50;0.40;;;;;;;3.19;88.86;96205.25;5043629;28;20288;-73
2024/01/29 00:43:16;;;;;;;0.20;0.20;;;;;;;3.32;88.79;96202.25;5042433;28;20204;-74
2024/01/29 00:45:43;;;;;;;0.30;0.30;;;;;;;3.15;89.26;96204.91;5044253;28;20207;-74
2024/01/29 00:48:10;;;;;;;0.35;0.35;;;;;;;3.18;89.09;96204.44;5044816;28;20200;-73
2024/01/29 00:50:36;;;;;;;0.45;0.45;;;;;;;3.40;88.61;96212.59;5045565;28;20958;-73
2024/01/29 00:53:03;;;;;;;0.20;0.20;;;;;;;3.30;88.56;96212.41;5044109;28;20611;-73
2024/01/29 00:55:31;;;;;;;0.20;0.20;;;;;;;3.26;88.66;96216.63;5046371;28;20250;-73
2024/01/29 00:57:57;;;;;;;0.30;0.30;;;;;;;3.34;89.46;96207.38;5044281;28;20285;-74
2024/01/29 01:00:26;;;;;;;0.20;0.20;;;;;;;3.27;89.06;96218.25;5044631;28;20204;-74
2024/01/29 01:02:52;;;;;;;0.20;0.20;;;;;;;3.03;90.11;96211.38;5044977;28;20512;-73
2024/01/29 01:05:20;;;;;;;0.20;0.20;;;;;;;2.79;90.76;96216.84;5044775;28;20224;-72
2024/01/29 01:07:49;;;;;;;0.20;0.20;;;;;;;3.05;90.30;96210.09;5043720;28;20254;-73
2024/01/29 01:10:16;;;;;;;0.10;0.10;;;;;;;2.90;90.50;96217.03;5045080;28;20660;-75
2024/01/29 01:12:43;;;;;;;0.10;0.10;;;;;;;3.05;90.12;96225.34;5043141;28;20707;-75
2024/01/29 01:15:13;;;;;;;0.20;0.20;;;;;;;3.14;89.71;96214.00;5043181;28;20228;-74
2024/01/29 01:17:42;;;;;;;0.40;0.40;;;;;;;3.00;90.14;96214.56;5043564;28;20213;-76
2024/01/29 01:20:09;;;;;;;0.30;0.30;;;;;;;3.10;90.58;96217.41;5041596;28;20504;-76
2024/01/29 01:22:36;;;;;;;0.32;0.32;;;;;;;3.15;89.95;96214.81;5044066;28;20632;-75
2024/01/29 01:25:03;;;;;;;0.30;0.30;;;;;;;2.97;90.51;96217.72;5045926;28;20207;-76
2024/01/29 01:27:30;;;;;;;0.20;0.20;;;;;;;2.93;90.48;96212.03;5046094;28;20211;-75
2024/01/29 01:29:57;;;;;;;5.28;1.00;;;;;;;2.99;90.78;96207.59;5047535;28;20289;-74
2024/01/29 01:32:24;;;;;;;0.20;0.20;;;;;;;2.87;90.34;96206.84;5043914;28;20204;-74
2024/01/29 01:34:52;;;;;;;2.03;1.80;;;;;;;2.93;91.11;96216.56;5042748;28;20223;-74
2024/01/29 01:37:19;;;;;;;0.32;0.32;;;;;;;2.91;90.57;96207.97;5043847;28;20286;-73
2024/01/29 01:39:45;;;;;;;0.20;0.20;;;;;;;2.99;90.34;96210.28;5045036;28;20648;-74
2024/01/29 01:42:12;;;;;;;0.20;0.20;;;;;;;2.85;91.37;96210.56;5042786;28;20271;-74
2024/01/29 01:44:39;;;;;;;0.20;0.20;;;;;;;3.12;90.17;96201.94;5043401;28;20203;-74
2024/01/29 01:47:06;;;;;;;0.20;0.20;;;;;;;3.00;90.15;96206.53;5043366;28;20219;-74
2024/01/29 01:49:33;;;;;;;0.68;0.65;;;;;;;3.13;90.44;96204.38;5044430;28;20269;-74
2024/01/29 01:52:02;;;;;;;0.30;0.30;;;;;;;3.28;89.73;96197.66;5045443;28;20204;-73
2024/01/29 01:54:29;;;;;;;0.20;0.20;;;;;;;3.14;89.68;96203.28;5043798;28;20220;-73
2024/01/29 01:56:57;;;;;;;0.20;0.20;;;;;;;2.92;91.22;96198.88;5043818;28;20205;-73
2024/01/29 01:59:26;;;;;;;0.13;0.13;;;;;;;3.09;90.16;96205.09;5039133;28;20330;-74
2024/01/29 02:01:53;;;;;;;0.30;0.30;;;;;;;3.35;89.54;96209.81;5044031;28;20211;-74
2024/01/29 02:04:20;;;;;;;0.15;0.15;;;;;;;3.50;89.10;96212.75;5041515;28;20195;-74
2024/01/29 02:06:48;;;;;;;0.22;0.22;;;;;;;3.46;88.78;96208.91;5045828;28;20215;-73
2024/01/29 02:09:16;;;;;;;0.10;0.10;;;;;;;3.29;89.56;96210.78;5042411;28;20201;-74
2024/01/29 02:11:43;;;;;;;0.20;0.20;;;;;;;3.05;89.93;96212.78;5042622;28;20643;-75
2024/01/29 02:14:10;;;;;;;0.47;0.40;;;;;;;3.21;89.60;96200.47;5043651;28;20392;-74
2024/01/29 02:16:37;;;;;;;0.30;0.30;;;;;;;3.14;89.23;96207.88;5042439;28;20208;-74
2024/01/29 02:19:06;;;;;;;0.20;0.20;;;;;;;3.26;89.26;96208.59;5044208;28;20208;-73
2024/01/29 02:21:33;;;;;;;0.10;0.10;;;;;;;3.44;88.89;96215.56;5041020;28;20216;-75
2024/01/29 02:24:04;;;;;;;1.30;0.45;;;;;;;3.42;88.60;96213.13;5043827;28;20231;-73
2024/01/29 02:26:31;;;;;;;1.00;0.93;;;;;;;3.58;87.82;96206.97;5040579;28;20201;-74
2024/01/29 02:28:58;;;;;;;0.30;0.30;;;;;;;3.30;89.13;96212.41;5043050;28;20236;-74
2024/01/29 02:31:25;;;;;;;0.40;0.40;;;;;;;3.49;88.31;96211.13;5044798;28;20291;-74
2024/01/29 02:33:51;;;;;;;0.20;0.20;;;;;;;3.51;88.73;96206.34;5042208;28;20286;-74
2024/01/29 02:36:18;;;;;;;0.20;0.20;;;;;;;3.45;87.85;96207.28;5043152;28;20208;-74
2024/01/29 02:38:45;;;;;;;0.20;0.20;;;;;;;3.46;88.40;96210.78;5039610;28;20615;-73
2024/01/29 02:41:13;;;;;;;0.20;0.20;;;;;;;3.69;87.56;96215.19;5042123;28;20208;-73
2024/01/29 02:43:41;;;;;;;0.43;0.43;;;;;;;3.83;86.95;96211.06;5041881;28;20196;-73
2024/01/29 02:46:11;;;;;;;0.20;0.20;;;;;;;4.08;86.01;96214.13;5040326;28;20199;-74
2024/01/29 02:48:38;;;;;;;0.45;0.45;;;;;;;3.62;87.09;96215.34;5041514;28;20250;-75
2024/01/29 02:51:05;;;;;;;0.20;0.20;;;;;;;4.01;86.33;96213.50;5042536;28;20273;-75
2024/01/29 02:53:32;;;;;;;0.30;0.30;;;;;;;4.18;85.75;96214.28;5039426;28;20199;-74
2024/01/29 02:56:01;;;;;;;0.50;0.50;;;;;;;4.19;85.62;96215.91;5041910;28;20654;-74
2024/01/29 02:58:31;;;;;;;0.20;0.20;;;;;;;4.19;85.73;96210.53;5040284;28;20204;-74
2024/01/29 03:00:58;;;;;;;0.28;0.28;;;;;;;4.00;86.15;96222.59;5037760;28;20200;-74
2024/01/29 03:03:25;;;;;;;0.20;0.20;;;;;;;3.80;86.24;96222.31;5033444;28;20254;-74
2024/01/29 03:05:52;;;;;;;0.30;0.30;;;;;;;3.50;86.93;96223.47;5042828;28;20270;-73
2024/01/29 03:08:18;;;;;;;0.55;0.55;;;;;;;3.53;87.91;96225.66;5040138;28;20201;-74
2024/01/29 03:10:45;;;;;;;0.20;0.20;;;;;;;3.16;88.12;96216.44;5042534;28;20208;-75
2024/01/29 03:13:12;;;;;;;0.95;0.90;;;;;;;3.35;88.48;96215.16;5042039;28;20208;-74
2024/01/29 03:15:40;;;;;;;0.35;0.35;;;;;;;3.36;87.69;96216.78;5048005;28;20746;-75
2024/01/29 03:18:07;;;;;;;1.23;1.23;;;;;;;3.14;88.58;96213.22;5045910;28;20572;-74
2024/01/29 03:20:33;;;;;;;0.20;0.20;;;;;;;3.30;88.10;96215.06;5047603;28;20277;-75
2024/01/29 03:23:00;;;;;;;0.28;0.28;;;;;;;3.16;88.26;96219.13;5046884;28;20214;-74
2024/01/29 03:25:27;;;;;;;0.30;0.30;;;;;;;3.11;89.15;96213.69;5047352;28;20204;-75
2024/01/29 03:27:54;;;;;;;0.28;0.28;;;;;;;3.11;89.13;96219.84;5047070;28;20722;-75
2024/01/29 03:30:21;;;;;;;2.72;0.50;;;;;;;3.10;88.82;96217.41;5046055;28;20258;-75
2024/01/29 03:32:49;;;;;;;0.30;0.30;;;;;;;3.20;89.23;96217.59;5046711;28;20224;-75
2024/01/29 03:35:16;;;;;;;0.50;0.50;;;;;;;3.02;88.89;96215.94;5047455;28;20639;-74
2024/01/29 03:37:45;;;;;;;1.55;0.60;;;;;;;3.05;89.32;96209.28;5044637;28;20208;-73
2024/01/29 03:40:13;;;;;;;0.20;0.20;;;;;;;3.35;88.60;96217.84;5044124;28;20363;-74
2024/01/29 03:42:40;;;;;;;0.30;0.30;;;;;;;3.49;88.11;96211.13;5046336;28;20250;-73
2024/01/29 03:45:08;;;;;;;0.20;0.20;;;;;;;3.21;88.95;96213.84;5047585;28;20297;-74
2024/01/29 03:47:34;;;;;;;0.30;0.30;;;;;;;3.43;88.44;96217.44;5038004;28;20541;-74
2024/01/29 03:50:05;;;;;;;0.60;0.60;;;;;;;3.40;88.76;96211.78;5044806;28;20211;-74
2024/01/29 03:52:32;;;;;;;0.20;0.20;;;;;;;3.33;88.88;96216.47;5046400;28;20652;-74
2024/01/29 03:54:59;;;;;;;0.20;0.20;;;;;;;3.23;88.60;96219.78;5046859;28;20238;-74
2024/01/29 03:57:25;;;;;;;0.80;0.68;;;;;;;3.05;89.12;96220.00;5046388;28;20199;-75
2024/01/29 03:59:54;;;;;;;0.25;0.25;;;;;;;3.10;90.52;96212.06;5045918;28;20265;-74
2024/01/29 04:02:20;;;;;;;0.20;0.20;;;;;;;3.29;89.94;96205.41;5044241;28;20202;-74
2024/01/29 04:04:48;;;;;;;0.57;0.57;;;;;;;3.43;89.46;96217.44;5040213;28;20200;-74
2024/01/29 04:07:16;;;;;;;0.45;0.45;;;;;;;3.76;88.50;96226.53;5036619;28;20291;-74
2024/01/29 04:09:43;;;;;;;0.20;0.20;;;;;;;3.84;88.37;96215.38;5041548;28;20286;-73
2024/01/29 04:12:10;;;;;;;0.22;0.22;;;;;;;5.62;100.00;96202.88;5039960;28;21202;-74
2024/01/29 04:14:37;;;;;;;0.65;0.65;;;;;;;7.74;100.00;96195.88;5040669;28;20267;-75
2024/01/29 04:17:06;;;;;;;0.30;0.30;;;;;;;5.63;98.83;96204.50;5041716;28;20208;-76
2024/01/29 04:19:33;;;;;;;0.85;0.85;;;;;;;4.58;91.31;96213.16;5039873;28;20200;-74
2024/01/29 04:22:00;;;;;;;0.20;0.20;;;;;;;3.44;92.13;96219.06;5040688;28;20294;-75
2024/01/29 04:24:29;;;;;;;0.17;0.17;;;;;;;3.07;94.05;96229.41;5039695;28;20208;-74
2024/01/29 04:26:56;;;;;;;0.52;0.52;;;;;;;3.03;94.77;96227.44;5042200;28;20295;-74
2024/01/29 04:29:22;;;;;;;0.25;0.22;;;;;;;3.04;94.96;96231.75;5037494;28;20649;-75
2024/01/29 04:31:49;;;;;;;0.20;0.20;;;;;;;2.96;94.67;96226.81;5041859;28;20213;-75
2024/01/29 04:34:16;;;;;;;1.13;1.05;;;;;;;2.96;94.96;96237.50;5037066;28;20538;-74
2024/01/29 04:36:43;;;;;;;2.00;1.90;;;;;;;2.88;94.68;96245.91;5040676;28;20223;-75
2024/01/29 04:39:10;;;;;;;0.28;0.28;;;;;;;2.88;94.45;96241.38;5034327;28;20660;-75
2024/01/29 04:41:39;;;;;;;0.38;0.38;;;;;;;2.87;94.49;96244.31;5024366;28;20551;-75
2024/01/29 04:44:05;;;;;;;0.30;0.30;;;;;;;3.00;94.15;96244.00;5033364;28;20289;-75
2024/01/29 04:46:32;;;;;;;1.10;1.10;;;;;;;2.78;94.18;96247.34;5038306;28;20196;-75
2024/01/29 04:48:59;;;;;;;0.20;0.20;;;;;;;2.67;95.34;96250.88;5039531;28;20208;-75
2024/01/29 04:51:27;;;;;;;0.50;0.50;;;;;;;2.72;94.76;96247.50;5032219;28;20208;-75
2024/01/29 04:53:54;;;;;;;0.30;0.30;;;;;;;2.77;94.93;96261.78;5038824;28;20211;-74
2024/01/29 04:56:20;;;;;;;0.20;0.20;;;;;;;2.53;94.93;96270.94;5032955;28;20235;-75
2024/01/29 04:58:49;;;;;;;0.30;0.30;;;;;;;2.78;94.40;96263.41;5039936;28;20270;-74
2024/01/29 05:01:15;;;;;;;0.20;0.20;;;;;;;2.69;94.29;96275.53;5035404;28;20852;-74
2024/01/29 05:03:46;;;;;;;0.20;0.20;;;;;;;2.54;95.09;96277.91;5027523;28;20204;-75
2024/01/29 05:06:15;;;;;;;0.20;0.20;;;;;;;2.58;94.73;96279.06;5030460;28;20338;-75
2024/01/29 05:08:42;;;;;;;0.52;0.52;;;;;;;2.42;95.28;96285.94;5033487;28;20201;-75
2024/01/29 05:11:09;;;;;;;0.77;0.77;;;;;;;2.29;95.56;96288.06;5030629;28;20236;-75
2024/01/29 05:13:36;;;;;;;0.28;0.28;;;;;;;2.41;95.06;96289.66;5027618;28;20219;-74
2024/01/29 05:16:06;;;;;;;3.05;1.23;;;;;;;2.42;95.33;96295.84;5035764;28;20239;-77
2024/01/29 05:18:33;;;;;;;0.40;0.40;;;;;;;2.44;95.67;96291.06;5037361;28;20212;-73
2024/01/29 05:20:59;;;;;;;0.57;0.57;;;;;;;2.52;95.27;96290.69;5043398;28;20208;-75
2024/01/29 05:23:26;;;;;;;0.52;0.52;;;;;;;2.60;94.65;96292.22;5038351;28;20204;-76
2024/01/29 05:25:53;;;;;;;0.20;0.20;;;;;;;2.66;94.31;96291.25;5033072;28;20583;-76
2024/01/29 05:28:20;;;;;;;0.13;0.13;;;;;;;2.80;93.41;96287.25;5033009;28;21134;-75
2024/01/29 05:30:46;;;;;;;2.53;1.58;;;;;;;2.77;93.52;96288.53;5022686;28;20658;-75
2024/01/29 05:33:15;;;;;;;3.17;2.10;;;;;;;2.80;93.50;96293.41;5032593;28;20221;-76
2024/01/29 05:35:41;;;;;;;3.97;2.50;;;;;;;2.85;93.07;96285.50;5031715;28;20228;-75
2024/01/29 05:38:08;;;;;;;5.47;2.00;;;;;;;3.02;92.38;96282.84;5032670;28;20216;-76
2024/01/29 05:40:35;;;;;;;4.85;2.75;;;;;;;2.97;92.16;96298.03;5036018;28;20216;-75
2024/01/29 05:43:02;;;;;;;4.82;2.15;;;;;;;2.98;92.05;96291.63;5030922;28;20211;-75
2024/01/29 05:45:32;;;;;;;3.28;1.83;;;;;;;3.11;91.77;96291.34;5033594;28;20215;-75
2024/01/29 05:48:04;;;;;;;4.95;2.70;;;;;;;3.23;91.57;96302.78;5031951;28;20255;-75
2024/01/29 05:50:32;;;;;;;0.20;0.20;;;;;;;3.30;91.01;96298.09;5033185;28;20211;-75
2024/01/29 05:52:59;;;;;;;0.10;0.10;;;;;;;3.19;91.25;96296.28;5029938;28;20212;-76
2024/01/29 05:55:25;;;;;;;0.30;0.30;;;;;;;3.20;91.25;96296.06;5032890;28;20231;-74
2024/01/29 05:57:51;;;;;;;0.25;0.25;;;;;;;3.37;90.69;96301.44;5029210;28;20228;-77
2024/01/29 06:00:19;;;;;;;0.20;0.20;;;;;;;3.32;90.29;96298.66;5032069;28;20201;-75
2024/01/29 06:02:48;;;;;;;0.32;0.32;;;;;;;3.39;89.94;96301.22;5034184;28;20254;-75
2024/01/29 06:05:15;;;;;;;0.47;0.47;;;;;;;3.52;90.08;96292.88;5033230;28;20652;-75
2024/01/29 06:07:43;;;;;;;0.20;0.20;;;;;;;3.24;89.79;96299.06;5035305;28;20196;-73
2024/01/29 06:10:13;;;;;;;0.68;0.68;;;;;;;3.04;90.56;96304.03;5035245;28;20215;-75
2024/01/29 06:12:40;;;;;;;0.20;0.20;;;;;;;3.19;90.58;96307.81;5032879;28;20298;-75
2024/01/29 06:15:07;;;;;;;0.30;0.30;;;;;;;3.40;90.38;96294.81;5032033;28;20288;-75
2024/01/29 06:17:34;;;;;;;1.08;0.63;;;;;;;3.44;90.10;96299.41;5031519;28;20488;-75
2024/01/29 06:20:04;;;;;;;0.43;0.43;;;;;;;3.47;88.98;96306.16;5032038;28;20223;-75
2024/01/29 06:22:31;;;;;;;1.58;1.48;;;;;;;3.75;88.57;96305.31;5030410;28;20209;-75
2024/01/29 06:24:59;;;;;;;0.25;0.25;;;;;;;3.54;88.39;96310.34;5033474;28;20253;-74
2024/01/29 06:27:26;;;;;;;0.20;0.20;;;;;;;3.44;88.61;96314.69;5032083;28;20207;-76
2024/01/29 06:29:53;;;;;;;0.20;0.20;;;;;;;3.43;88.24;96315.72;5034433;28;20261;-75
2024/01/29 06:32:19;;;;;;;0.28;0.28;;;;;;;3.55;87.80;96317.28;5052602;28;20211;-75
2024/01/29 06:34:46;;;;;;;0.20;0.20;;;;;;;3.87;87.17;96314.06;5044279;28;20649;-75
2024/01/29 06:37:13;;;;;;;0.20;0.20;;;;;;;3.90;86.32;96318.97;5042667;28;20227;-75
2024/01/29 06:39:40;;;;;;;0.30;0.30;;;;;;;4.17;85.76;96314.56;5032206;28;20254;-75
2024/01/29 06:42:09;;;;;;;0.20;0.20;;;;;;;4.21;84.18;96315.69;5043527;28;20912;-75
2024/01/29 06:44:35;;;;;;;0.20;0.20;;;;;;;3.97;84.30;96333.00;5048044;28;20216;-75
2024/01/29 06:47:02;;;;;;;0.20;0.20;;;;;;;4.11;84.78;96320.88;5032461;28;20204;-76
2024/01/29 06:49:31;;;;;;;0.40;0.40;;;;;;;4.07;84.51;96330.50;5048753;28;20215;-76
2024/01/29 06:51:58;;;;;;;0.20;0.20;;;;;;;4.21;84.60;96315.69;5032570;28;20274;-75
2024/01/29 06:57:01;;;;;;;0.35;0.35;;;;;;;3.83;83.21;96315.59;5352643;23;20717;-77
2024/01/29 06:59:30;;;;;;;0.55;0.55;;;;;;;3.74;83.74;96330.47;4992889;28;20674;-75
2024/01/29 07:01:59;;;;;;;0.20;0.20;;;;;;;3.57;83.20;96336.63;4992512;28;20605;-75
2024/01/29 07:04:26;;;;;;;0.20;0.20;;;;;;;3.64;83.39;96335.66;4979919;28;20213;-77
2024/01/29 07:06:55;;;;;;;0.40;0.40;;;;;;;3.90;83.22;96330.50;4994360;23;20249;-76
2024/01/29 07:09:21;;;;;;;0.20;0.20;;;;;;;3.82;82.30;96330.09;4988634;28;20217;-77
2024/01/29 07:11:48;;;;;;;0.57;0.57;;;;;;;4.07;81.92;96332.38;4991399;28;20205;-76
2024/01/29 07:14:15;;;;;;;0.55;0.55;;;;;;;4.14;82.11;96320.41;4990937;28;20249;-77
2024/01/29 07:16:44;;;;;;;0.40;0.40;;;;;;;4.22;81.69;96327.25;4992291;28;20218;-75
2024/01/29 07:19:11;;;;;;;0.77;0.77;;;;;;;4.21;81.89;96323.75;4992386;28;20209;-75
2024/01/29 07:21:41;;;;;;;0.55;0.55;;;;;;;4.40;80.96;96318.09;4992351;28;20205;-77
2024/01/29 07:24:08;;;;;;;0.20;0.20;;;;;;;4.05;81.27;96327.25;4988854;28;20211;-76
2024/01/29 07:26:35;;;;;;;0.20;0.20;;;;;;;3.69;81.59;96328.50;4985630;28;20237;-76
2024/01/29 07:29:02;;;;;;;0.20;0.20;;;;;;;3.41;83.01;96332.06;4991744;28;20216;-77
2024/01/29 07:31:29;;;;;;;0.30;0.30;;;;;;;3.44;83.91;96336.91;4992063;28;20218;-76
2024/01/29 07:33:57;;;;;;;0.25;0.25;;;;;;;3.77;82.95;96344.22;4991947;28;20209;-77
2024/01/29 07:36:24;;;;;;;0.20;0.20;;;;;;;4.06;80.38;96331.56;4992160;28;20233;-76
2024/01/29 07:38:50;;;;;;;1.25;0.85;;;;;;;3.98;80.48;96331.94;4992425;28;20205;-75
2024/01/29 07:41:17;;;;;;;0.68;0.68;;;;;;;4.33;79.51;96328.19;4992439;28;20201;-76
2024/01/29 07:43:44;;;;;;;0.35;0.35;;;;;;;4.24;80.03;96333.97;4990742;28;20576;-76
2024/01/29 07:46:11;;;;;;;1.00;1.00;;;;;;;3.98;79.92;96331.94;4985728;28;20201;-76
2024/01/29 07:48:40;;;;;;;0.28;0.28;;;;;;;4.48;79.15;96336.47;4981602;28;20673;-75
2024/01/29 07:51:10;;;;;;;0.68;0.68;;;;;;;4.77;78.28;96332.56;4990790;28;20209;-76
2024/01/29 07:53:37;;;;;;;0.63;0.63;;;;;;;5.09;77.20;96331.88;4991870;28;20210;-76
2024/01/29 07:56:05;;;;;;;0.20;0.20;;;;;;;5.16;75.42;96336.00;4992099;28;20244;-77
2024/01/29 07:58:32;;;;;;;0.50;0.50;;;;;;;4.72;74.91;96332.50;4990685;28;20209;-77
2024/01/29 08:04:34;;;;;;;0.20;0.20;;;;;;;4.97;74.62;96337.38;4967973;22;21171;-76
2024/01/29 08:07:02;;;;;;;0.20;0.20;;;;;;;4.86;73.79;96343.69;4989169;23;20835;-75
2024/01/29 08:09:29;;;;;;;0.20;0.20;;;;;;;5.05;73.00;96341.53;4991845;28;20209;-75
2024/01/29 08:11:56;;;;;;;0.15;0.15;;;;;;;5.37;72.90;96345.09;4986238;28;20209;-74
2024/01/29 08:14:23;;;;;;;0.30;0.30;;;;;;;5.06;72.94;96351.19;4992115;28;20252;-74
2024/01/29 08:16:50;;;;;;;0.20;0.20;;;;;;;5.16;74.30;96349.44;4985865;28;20218;-75
2024/01/29 08:19:17;;;;;;;0.30;0.30;;;;;;;5.92;70.76;96346.75;4972372;28;20210;-74
2024/01/29 08:21:44;;;;;;;0.20;0.20;;;;;;;4.98;71.21;96358.63;4969578;28;20221;-75
2024/01/29 08:24:12;;;;;;;0.20;0.20;;;;;;;4.93;71.91;96366.59;4991014;28;20209;-75
2024/01/29 08:26:39;;;;;;;0.20;0.20;;;;;;;4.95;70.95;96361.78;4990959;28;20276;-74
2024/01/29 08:29:06;;;;;;;0.30;0.30;;;;;;;5.11;68.77;96362.81;4982624;28;20283;-73
2024/01/29 08:31:32;;;;;;;0.28;0.28;;;;;;;4.81;65.73;96370.47;4990928;28;20252;-76
2024/01/29 08:33:59;;;;;;;0.20;0.20;;;;;;;4.97;64.37;96373.09;4991488;28;20202;-76
2024/01/29 08:36:26;;;;;;;0.20;0.20;;;;;;;5.02;65.43;96374.25;4991407;28;20225;-76
2024/01/29 08:38:53;;;;;;;0.68;0.68;;;;;;;5.25;65.39;96379.34;4990839;28;20213;-75
2024/01/29 08:41:21;;;;;;;0.20;0.20;;;;;;;5.22;65.63;96379.84;4991922;28;20224;-76
2024/01/29 08:43:48;;;;;;;0.40;0.40;;;;;;;4.73;67.22;96387.81;4983082;28;20211;-75
2024/01/29 08:46:15;;;;;;;0.30;0.30;;;;;;;4.72;67.20;96386.19;4995706;28;20202;-74
2024/01/29 08:48:42;;;;;;;1.75;1.50;;;;;;;4.65;68.40;96385.53;4995892;28;20209;-74
2024/01/29 08:51:09;;;;;;;0.40;0.40;;;;;;;4.81;68.37;96375.81;4995317;28;20296;-75
2024/01/29 08:53:36;;;;;;;0.40;0.40;;;;;;;4.69;70.43;96386.69;4995215;28;20213;-75
2024/01/29 08:56:06;;;;;;;0.20;0.20;;;;;;;4.57;68.52;96388.66;4995323;28;20543;-76
2024/01/29 08:58:35;;;;;;;0.35;0.35;;;;;;;4.74;66.32;96389.44;4994819;28;20252;-75
2024/01/29 09:01:02;;;;;;;0.77;0.77;;;;;;;4.17;67.77;96383.47;4994396;28;20198;-73
2024/01/29 09:03:29;;;;;;;0.20;0.20;;;;;;;4.37;69.45;96385.69;4994672;28;20202;-75
2024/01/29 09:05:56;;;;;;;0.30;0.30;;;;;;;4.56;67.22;96384.34;4994938;28;20238;-75
2024/01/29 09:08:23;;;;;;;0.28;0.28;;;;;;;4.56;67.02;96395.06;4991121;28;20218;-74
2024/01/29 09:10:49;;;;;;;0.45;0.45;;;;;;;4.73;66.98;96387.81;4975610;28;20207;-75
2024/01/29 09:13:16;;;;;;;0.20;0.20;;;;;;;4.90;67.41;96380.53;4978292;28;20206;-76
2024/01/29 09:15:44;;;;;;;0.47;0.47;;;;;;;5.07;66.25;96385.03;4995308;28;20214;-75
2024/01/29 09:18:11;;;;;;;0.43;0.43;;;;;;;4.75;67.20;96388.38;4994793;28;20652;-75
2024/01/29 09:20:38;;;;;;;0.20;0.20;;;;;;;5.03;67.65;96381.25;4995287;28;20205;-75
2024/01/29 09:23:05;;;;;;;0.20;0.20;;;;;;;4.97;63.72;96381.16;4994778;28;20212;-74
2024/01/29 09:25:31;;;;;;;0.10;0.10;;;;;;;4.64;65.69;96384.75;4994983;28;20228;-75
2024/01/29 09:27:58;;;;;;;0.25;0.25;;;;;;;5.09;64.91;96380.22;4995193;28;20666;-74
2024/01/29 09:30:25;;;;;;;0.20;0.20;;;;;;;4.80;64.25;96377.69;4993816;28;20217;-74
2024/01/29 09:32:53;;;;;;;0.20;0.20;;;;;;;4.90;63.52;96382.41;4995224;28;20220;-74
2024/01/29 09:35:20;;;;;;;0.25;0.25;;;;;;;4.68;64.29;96368.94;4976492;28;20721;-75
2024/01/29 09:37:46;;;;;;;0.20;0.20;;;;;;;4.76;64.38;96375.78;4975088;28;20269;-73
2024/01/29 09:40:13;;;;;;;0.20;0.20;;;;;;;4.44;64.86;96367.53;4991399;28;20208;-71
2024/01/29 09:42:41;;;;;;;0.10;0.10;;;;;;;4.79;64.48;96373.38;4994945;28;20550;-75
2024/01/29 09:45:11;;;;;;;0.20;0.20;;;;;;;4.84;63.09;96378.03;4983178;28;20218;-76
2024/01/29 09:47:38;;;;;;;0.40;0.40;;;;;;;4.68;62.51;96374.31;4975414;28;20207;-74
2024/01/29 09:50:10;;;;;;;0.57;0.55;;;;;;;4.85;63.37;96364.34;4977385;28;20566;-74
2024/01/29 09:52:40;;;;;;;0.20;0.20;;;;;;;5.03;63.24;96365.13;4974888;28;20237;-74
2024/01/29 09:55:11;;;;;;;0.20;0.20;;;;;;;5.03;62.99;96365.13;4985485;28;20216;-73
2024/01/29 09:57:39;;;;;;;0.17;0.17;;;;;;;4.71;62.50;96371.13;4994489;28;20268;-73
2024/01/29 10:00:07;;;;;;;0.20;0.20;;;;;;;4.35;61.79;96366.31;4993767;28;20205;-73
2024/01/29 10:02:35;;;;;;;0.20;0.20;;;;;;;4.41;62.24;96368.00;4993528;28;20202;-73
2024/01/29 10:05:01;;;;;;;0.40;0.40;;;;;;;4.23;62.29;96371.78;4993840;28;20296;-75
2024/01/29 10:07:30;;;;;;;0.20;0.20;;;;;;;4.28;62.99;96367.28;4993924;28;20216;-73
2024/01/29 10:09:56;;;;;;;0.43;0.43;;;;;;;4.15;63.51;96364.94;4993535;28;20264;-74
2024/01/29 10:12:26;;;;;;;0.52;0.35;;;;;;;4.33;64.09;96365.75;4994414;28;20208;-74
2024/01/29 10:14:55;;;;;;;0.73;0.73;;;;;;;4.58;64.05;96363.44;4993914;28;20692;-73
2024/01/29 10:17:23;;;;;;;0.52;0.52;;;;;;;4.17;63.27;96362.84;4993491;28;20226;-75
2024/01/29 10:19:50;;;;;;;0.20;0.20;;;;;;;4.26;63.72;96361.34;4993579;28;20202;-73
2024/01/29 10:22:17;;;;;;;0.30;0.30;;;;;;;4.81;63.48;96357.84;4993958;28;20251;-72
2024/01/29 10:24:45;;;;;;;0.30;0.30;;;;;;;4.49;63.28;96359.56;4968398;28;20214;-73
2024/01/29 10:27:12;;;;;;;0.20;0.20;;;;;;;4.14;63.92;96365.19;4973910;28;20612;-73
2024/01/29 10:29:49;;;;;;;1.02;0.90;;;;;;;4.18;62.69;96359.09;4974495;28;20601;-73
2024/01/29 10:32:16;;;;;;;0.20;0.20;;;;;;;3.97;63.71;96357.13;4993329;28;20198;-74
2024/01/29 10:34:43;;;;;;;0.20;0.20;;;;;;;3.99;63.09;96349.66;4993705;28;20249;-74
2024/01/29 10:37:11;;;;;;;0.30;0.30;;;;;;;4.26;63.26;96350.63;4993452;28;20229;-73
2024/01/29 10:39:40;;;;;;;0.50;0.50;;;;;;;4.42;62.79;96353.53;4993517;28;20302;-73
2024/01/29 10:42:09;;;;;;;0.20;0.20;;;;;;;4.53;62.37;96348.06;4993912;28;20608;-74
2024/01/29 10:44:38;;;;;;;0.20;0.20;;;;;;;4.67;62.14;96343.16;4982642;28;20217;-72
2024/01/29 10:47:12;;;;;;;0.20;0.20;;;;;;;4.64;61.38;96341.81;4988159;28;20259;-72
2024/01/29 10:49:42;;;;;;;0.22;0.22;;;;;;;4.67;61.27;96340.47;4986765;28;20190;-72
2024/01/29 10:52:10;;;;;;;0.52;0.52;;;;;;;4.69;61.13;96333.00;4974182;28;20206;-74
2024/01/29 10:54:38;;;;;;;0.40;0.40;;;;;;;4.74;61.52;96337.63;4974117;28;20213;-72
2024/01/29 10:57:09;;;;;;;0.20;0.20;;;;;;;4.21;61.03;96339.03;4985060;28;20341;-71
2024/01/29 10:59:41;;;;;;;0.20;0.20;;;;;;;4.10;61.72;96334.56;4993528;28;20710;-73
2024/01/29 11:02:12;;;;;;;0.20;0.20;;;;;;;4.27;62.76;96333.47;4987682;28;20206;-73
2024/01/29 11:04:39;;;;;;;3.03;1.85;;;;;;;4.39;62.08;96327.19;4973104;28;20224;-72
2024/01/29 11:07:12;;;;;;;0.20;0.20;;;;;;;4.70;60.48;96329.25;4981504;28;20333;-73
2024/01/29 11:09:44;;;;;;;0.10;0.10;;;;;;;4.71;61.04;96328.19;4993171;28;20272;-75
2024/01/29 11:12:13;;;;;;;0.45;0.45;;;;;;;4.81;60.83;96325.63;4985260;28;20564;-75
2024/01/29 11:14:47;;;;;;;0.20;0.20;;;;;;;4.66;60.86;96330.78;4973831;28;20281;-76
2024/01/29 11:17:14;;;;;;;1.30;1.20;;;;;;;5.00;59.95;96318.91;4980363;28;20314;-76
2024/01/29 11:19:43;;;;;;;0.20;0.20;;;;;;;4.95;60.11;96316.16;4993151;28;20206;-75
2024/01/29 11:22:09;;;;;;;0.20;0.20;;;;;;;5.04;59.08;96313.03;4993046;28;20213;-76
2024/01/29 11:24:36;;;;;;;0.20;0.20;;;;;;;5.21;58.35;96308.38;4981428;28;20236;-76
2024/01/29 11:27:09;;;;;;;0.47;0.47;;;;;;;5.15;57.66;96304.03;4975822;28;20653;-76
2024/01/29 11:29:37;;;;;;;0.20;0.20;;;;;;;5.11;57.48;96308.25;4954293;28;20203;-76
2024/01/29 11:32:06;;;;;;;0.28;0.28;;;;;;;5.13;57.07;96311.53;4957619;28;20210;-75
2024/01/29 11:34:33;;;;;;;0.98;0.98;;;;;;;4.91;58.04;96309.66;4992160;28;20237;-75
2024/01/29 11:37:00;;;;;;;0.10;0.10;;;;;;;4.95;58.55;96304.59;4992747;28;20210;-76
2024/01/29 11:39:27;;;;;;;0.20;0.20;;;;;;;5.28;56.94;96298.25;4992702;28;20212;-75
2024/01/29 11:41:54;;;;;;;0.20;0.20;;;;;;;5.22;57.17;96302.75;4993056;28;20205;-75
2024/01/29 11:44:22;;;;;;;0.20;0.20;;;;;;;5.21;57.42;96297.63;4987916;28;20206;-76
2024/01/29 11:46:50;;;;;;;0.20;0.20;;;;;;;5.05;56.69;96298.53;4973338;28;20244;-75
2024/01/29 11:49:26;;;;;;;0.20;0.20;;;;;;;5.41;56.54;96287.09;4984822;28;20214;-75